sensor_id;sensor_type;location;lat;lon;timestamp;P1;durP1;ratioP1;P2;durP2;ratioP2
24411;SDS011;12544;46.760;15.942;2023-06-24T00:00:17;11.45;;;7.05;;
24411;SDS011;12544;46.760;15.942;2023-06-24T00:02:43;13.75;;;7.65;;
24411;SDS011;12544;46.760;15.942;2023-06-24T00:05:10;10.20;;;8.15;;
24411;SDS011;12544;46.760;15.942;2023-06-24T00:11:04;12.20;;;8.80;;
24411;SDS011;12544;46.760;15.942;2023-06-24T00:13:30;10.60;;;9.30;;
24411;SDS011;12544;46.760;15.942;2023-06-24T00:15:56;8.20;;;6.90;;
24411;SDS011;12544;46.760;15.942;2023-06-24T00:18:22;12.35;;;8.75;;
24411;SDS011;12544;46.760;15.942;2023-06-24T00:20:49;14.68;;;10.18;;
24411;SDS011;12544;46.760;15.942;2023-06-24T00:23:16;27.90;;;10.40;;
24411;SDS011;12544;46.760;15.942;2023-06-24T00:25:45;54.17;;;12.50;;
24411;SDS011;12544;46.760;15.942;2023-06-24T00:28:11;92.28;;;14.77;;
24411;SDS011;12544;46.760;15.942;2023-06-24T00:30:37;92.03;;;15.32;;
24411;SDS011;12544;46.760;15.942;2023-06-24T00:33:02;145.25;;;18.60;;
24411;SDS011;12544;46.760;15.942;2023-06-24T00:35:28;423.58;;;30.92;;
24411;SDS011;12544;46.760;15.942;2023-06-24T00:37:53;434.42;;;32.13;;
24411;SDS011;12544;46.760;15.942;2023-06-24T00:40:23;484.85;;;35.75;;
24411;SDS011;12544;46.760;15.942;2023-06-24T00:42:56;277.40;;;21.30;;
24411;SDS011;12544;46.760;15.942;2023-06-24T00:45:22;317.58;;;27.02;;
24411;SDS011;12544;46.760;15.942;2023-06-24T00:47:49;172.00;;;19.98;;
24411;SDS011;12544;46.760;15.942;2023-06-24T00:50:15;142.43;;;15.73;;
24411;SDS011;12544;46.760;15.942;2023-06-24T00:52:41;229.38;;;19.42;;
24411;SDS011;12544;46.760;15.942;2023-06-24T00:55:11;230.43;;;21.15;;
24411;SDS011;12544;46.760;15.942;2023-06-24T00:57:38;203.95;;;19.80;;
24411;SDS011;12544;46.760;15.942;2023-06-24T01:00:05;244.43;;;23.52;;
24411;SDS011;12544;46.760;15.942;2023-06-24T01:02:44;256.63;;;22.05;;
24411;SDS011;12544;46.760;15.942;2023-06-24T01:05:12;184.07;;;22.40;;
24411;SDS011;12544;46.760;15.942;2023-06-24T01:07:39;133.80;;;18.10;;
24411;SDS011;12544;46.760;15.942;2023-06-24T01:10:06;121.95;;;17.85;;
24411;SDS011;12544;46.760;15.942;2023-06-24T01:12:33;78.10;;;16.55;;
24411;SDS011;12544;46.760;15.942;2023-06-24T01:15:00;71.75;;;16.42;;
24411;SDS011;12544;46.760;15.942;2023-06-24T01:18:13;35.00;;;14.23;;
24411;SDS011;12544;46.760;15.942;2023-06-24T01:29:24;26.60;;;16.33;;
24411;SDS011;12544;46.760;15.942;2023-06-24T01:37:19;21.77;;;14.68;;
24411;SDS011;12544;46.760;15.942;2023-06-24T01:40:05;21.02;;;13.02;;
24411;SDS011;12544;46.760;15.942;2023-06-24T01:42:42;15.57;;;12.32;;
24411;SDS011;12544;46.760;15.942;2023-06-24T01:45:19;15.63;;;11.02;;
24411;SDS011;12544;46.760;15.942;2023-06-24T01:48:05;15.48;;;12.02;;
24411;SDS011;12544;46.760;15.942;2023-06-24T01:50:36;14.07;;;11.02;;
24411;SDS011;12544;46.760;15.942;2023-06-24T01:53:05;13.85;;;11.48;;
24411;SDS011;12544;46.760;15.942;2023-06-24T01:55:32;12.43;;;10.52;;
24411;SDS011;12544;46.760;15.942;2023-06-24T01:58:01;13.07;;;10.73;;
24411;SDS011;12544;46.760;15.942;2023-06-24T02:00:30;13.93;;;10.65;;
24411;SDS011;12544;46.760;15.942;2023-06-24T02:02:57;11.13;;;9.88;;
24411;SDS011;12544;46.760;15.942;2023-06-24T02:05:22;13.15;;;10.45;;
24411;SDS011;12544;46.760;15.942;2023-06-24T02:07:50;12.45;;;9.93;;
24411;SDS011;12544;46.760;15.942;2023-06-24T02:10:18;12.25;;;10.88;;
24411;SDS011;12544;46.760;15.942;2023-06-24T02:12:45;10.45;;;9.38;;
24411;SDS011;12544;46.760;15.942;2023-06-24T02:15:13;9.93;;;8.93;;
24411;SDS011;12544;46.760;15.942;2023-06-24T02:17:39;12.00;;;10.27;;
24411;SDS011;12544;46.760;15.942;2023-06-24T02:20:08;13.73;;;9.32;;
24411;SDS011;12544;46.760;15.942;2023-06-24T02:22:36;11.50;;;8.23;;
24411;SDS011;12544;46.760;15.942;2023-06-24T02:25:04;11.38;;;8.80;;
24411;SDS011;12544;46.760;15.942;2023-06-24T02:27:31;11.02;;;9.05;;
24411;SDS011;12544;46.760;15.942;2023-06-24T02:29:58;9.43;;;8.25;;
24411;SDS011;12544;46.760;15.942;2023-06-24T02:32:25;9.90;;;8.80;;
24411;SDS011;12544;46.760;15.942;2023-06-24T02:34:51;18.38;;;9.20;;
24411;SDS011;12544;46.760;15.942;2023-06-24T02:37:17;10.82;;;8.13;;
24411;SDS011;12544;46.760;15.942;2023-06-24T02:39:42;12.00;;;8.25;;
24411;SDS011;12544;46.760;15.942;2023-06-24T02:42:12;8.32;;;7.50;;
24411;SDS011;12544;46.760;15.942;2023-06-24T02:44:49;12.35;;;7.95;;
24411;SDS011;12544;46.760;15.942;2023-06-24T02:47:15;11.15;;;9.13;;
24411;SDS011;12544;46.760;15.942;2023-06-24T02:49:44;9.50;;;8.57;;
24411;SDS011;12544;46.760;15.942;2023-06-24T02:52:11;13.45;;;9.10;;
24411;SDS011;12544;46.760;15.942;2023-06-24T02:54:38;11.13;;;9.88;;
24411;SDS011;12544;46.760;15.942;2023-06-24T02:57:04;12.50;;;10.63;;
24411;SDS011;12544;46.760;15.942;2023-06-24T02:59:31;15.10;;;9.82;;
24411;SDS011;12544;46.760;15.942;2023-06-24T03:01:57;11.95;;;9.77;;
24411;SDS011;12544;46.760;15.942;2023-06-24T03:04:23;12.65;;;10.00;;
24411;SDS011;12544;46.760;15.942;2023-06-24T03:09:35;13.70;;;10.73;;
24411;SDS011;12544;46.760;15.942;2023-06-24T03:12:01;11.50;;;10.30;;
24411;SDS011;12544;46.760;15.942;2023-06-24T03:14:27;12.55;;;10.15;;
24411;SDS011;12544;46.760;15.942;2023-06-24T03:16:52;11.25;;;9.30;;
24411;SDS011;12544;46.760;15.942;2023-06-24T03:19:18;14.43;;;10.27;;
24411;SDS011;12544;46.760;15.942;2023-06-24T03:21:44;9.80;;;8.90;;
24411;SDS011;12544;46.760;15.942;2023-06-24T03:24:09;12.15;;;9.77;;
24411;SDS011;12544;46.760;15.942;2023-06-24T03:26:36;10.27;;;9.20;;
24411;SDS011;12544;46.760;15.942;2023-06-24T03:29:03;10.45;;;9.20;;
24411;SDS011;12544;46.760;15.942;2023-06-24T03:31:29;11.93;;;9.05;;
24411;SDS011;12544;46.760;15.942;2023-06-24T03:33:55;9.20;;;8.30;;
24411;SDS011;12544;46.760;15.942;2023-06-24T03:36:21;9.48;;;8.05;;
24411;SDS011;12544;46.760;15.942;2023-06-24T03:38:46;9.93;;;7.65;;
24411;SDS011;12544;46.760;15.942;2023-06-24T03:41:12;8.85;;;7.47;;
24411;SDS011;12544;46.760;15.942;2023-06-24T03:43:38;10.48;;;7.28;;
24411;SDS011;12544;46.760;15.942;2023-06-24T03:46:04;10.60;;;8.15;;
24411;SDS011;12544;46.760;15.942;2023-06-24T03:48:30;11.07;;;8.55;;
24411;SDS011;12544;46.760;15.942;2023-06-24T03:50:55;10.23;;;9.32;;
24411;SDS011;12544;46.760;15.942;2023-06-24T03:53:21;14.15;;;9.25;;
24411;SDS011;12544;46.760;15.942;2023-06-24T03:55:47;11.93;;;9.40;;
24411;SDS011;12544;46.760;15.942;2023-06-24T03:58:12;25.55;;;10.45;;
24411;SDS011;12544;46.760;15.942;2023-06-24T04:00:39;18.30;;;12.05;;
24411;SDS011;12544;46.760;15.942;2023-06-24T04:03:06;54.13;;;11.68;;
24411;SDS011;12544;46.760;15.942;2023-06-24T04:05:33;70.53;;;11.98;;
24411;SDS011;12544;46.760;15.942;2023-06-24T04:07:58;129.25;;;12.95;;
24411;SDS011;12544;46.760;15.942;2023-06-24T04:10:24;81.50;;;12.57;;
24411;SDS011;12544;46.760;15.942;2023-06-24T04:12:50;82.85;;;13.25;;
24411;SDS011;12544;46.760;15.942;2023-06-24T04:15:16;33.53;;;12.48;;
24411;SDS011;12544;46.760;15.942;2023-06-24T04:17:41;89.03;;;14.10;;
24411;SDS011;12544;46.760;15.942;2023-06-24T04:20:07;52.13;;;13.73;;
24411;SDS011;12544;46.760;15.942;2023-06-24T04:22:35;18.55;;;13.65;;
24411;SDS011;12544;46.760;15.942;2023-06-24T04:25:02;35.92;;;13.85;;
24411;SDS011;12544;46.760;15.942;2023-06-24T04:27:28;27.98;;;12.25;;
24411;SDS011;12544;46.760;15.942;2023-06-24T04:29:54;24.52;;;12.07;;
24411;SDS011;12544;46.760;15.942;2023-06-24T04:32:19;16.05;;;12.13;;
24411;SDS011;12544;46.760;15.942;2023-06-24T04:34:45;16.38;;;12.68;;
24411;SDS011;12544;46.760;15.942;2023-06-24T04:37:11;13.02;;;11.57;;
24411;SDS011;12544;46.760;15.942;2023-06-24T04:39:36;15.23;;;11.45;;
24411;SDS011;12544;46.760;15.942;2023-06-24T04:42:02;16.63;;;12.57;;
24411;SDS011;12544;46.760;15.942;2023-06-24T04:44:28;14.43;;;11.07;;
24411;SDS011;12544;46.760;15.942;2023-06-24T04:49:44;10.38;;;9.38;;
24411;SDS011;12544;46.760;15.942;2023-06-24T04:52:12;12.13;;;9.98;;
24411;SDS011;12544;46.760;15.942;2023-06-24T04:54:38;11.43;;;9.82;;
24411;SDS011;12544;46.760;15.942;2023-06-24T04:57:06;14.95;;;11.27;;
24411;SDS011;12544;46.760;15.942;2023-06-24T04:59:33;12.65;;;11.38;;
24411;SDS011;12544;46.760;15.942;2023-06-24T05:01:59;14.82;;;11.15;;
24411;SDS011;12544;46.760;15.942;2023-06-24T05:11:08;12.57;;;8.98;;
24411;SDS011;12544;46.760;15.942;2023-06-24T05:13:34;12.75;;;9.52;;
24411;SDS011;12544;46.760;15.942;2023-06-24T05:15:59;8.93;;;8.07;;
24411;SDS011;12544;46.760;15.942;2023-06-24T05:21:47;11.18;;;7.70;;
24411;SDS011;12544;46.760;15.942;2023-06-24T05:24:13;8.73;;;7.93;;
24411;SDS011;12544;46.760;15.942;2023-06-24T05:26:38;9.57;;;7.20;;
24411;SDS011;12544;46.760;15.942;2023-06-24T05:29:04;9.02;;;8.13;;
24411;SDS011;12544;46.760;15.942;2023-06-24T05:31:29;8.65;;;7.72;;
24411;SDS011;12544;46.760;15.942;2023-06-24T05:33:55;8.52;;;7.63;;
24411;SDS011;12544;46.760;15.942;2023-06-24T05:36:21;9.20;;;8.23;;
24411;SDS011;12544;46.760;15.942;2023-06-24T05:38:46;9.30;;;8.30;;
24411;SDS011;12544;46.760;15.942;2023-06-24T05:41:13;10.48;;;8.75;;
24411;SDS011;12544;46.760;15.942;2023-06-24T05:43:39;10.88;;;8.93;;
24411;SDS011;12544;46.760;15.942;2023-06-24T05:46:07;8.15;;;7.13;;
24411;SDS011;12544;46.760;15.942;2023-06-24T05:48:33;8.95;;;8.05;;
24411;SDS011;12544;46.760;15.942;2023-06-24T05:50:58;8.77;;;7.88;;
24411;SDS011;12544;46.760;15.942;2023-06-24T05:53:24;13.20;;;8.52;;
24411;SDS011;12544;46.760;15.942;2023-06-24T05:55:50;9.55;;;8.50;;
24411;SDS011;12544;46.760;15.942;2023-06-24T05:58:15;9.60;;;8.70;;
24411;SDS011;12544;46.760;15.942;2023-06-24T06:00:41;9.07;;;8.20;;
24411;SDS011;12544;46.760;15.942;2023-06-24T06:03:07;8.75;;;7.85;;
24411;SDS011;12544;46.760;15.942;2023-06-24T06:05:32;9.15;;;8.10;;
24411;SDS011;12544;46.760;15.942;2023-06-24T06:07:58;10.15;;;8.88;;
24411;SDS011;12544;46.760;15.942;2023-06-24T06:10:23;8.90;;;8.00;;
24411;SDS011;12544;46.760;15.942;2023-06-24T06:12:49;8.60;;;7.70;;
24411;SDS011;12544;46.760;15.942;2023-06-24T06:15:15;9.13;;;8.27;;
24411;SDS011;12544;46.760;15.942;2023-06-24T06:17:40;10.75;;;9.60;;
24411;SDS011;12544;46.760;15.942;2023-06-24T06:20:06;9.20;;;8.02;;
24411;SDS011;12544;46.760;15.942;2023-06-24T06:22:32;8.82;;;7.93;;
24411;SDS011;12544;46.760;15.942;2023-06-24T06:25:02;8.60;;;7.32;;
24411;SDS011;12544;46.760;15.942;2023-06-24T06:27:29;9.25;;;7.53;;
24411;SDS011;12544;46.760;15.942;2023-06-24T06:29:55;7.57;;;6.82;;
24411;SDS011;12544;46.760;15.942;2023-06-24T06:32:20;8.38;;;7.60;;
24411;SDS011;12544;46.760;15.942;2023-06-24T06:34:46;11.60;;;7.65;;
24411;SDS011;12544;46.760;15.942;2023-06-24T06:37:12;10.13;;;7.05;;
24411;SDS011;12544;46.760;15.942;2023-06-24T06:39:37;7.75;;;7.00;;
24411;SDS011;12544;46.760;15.942;2023-06-24T06:42:03;7.47;;;6.78;;
24411;SDS011;12544;46.760;15.942;2023-06-24T06:44:29;7.40;;;6.70;;
24411;SDS011;12544;46.760;15.942;2023-06-24T06:46:54;12.43;;;8.98;;
24411;SDS011;12544;46.760;15.942;2023-06-24T06:49:20;8.50;;;7.53;;
24411;SDS011;12544;46.760;15.942;2023-06-24T06:51:45;10.38;;;8.13;;
24411;SDS011;12544;46.760;15.942;2023-06-24T06:57:33;7.20;;;6.50;;
24411;SDS011;12544;46.760;15.942;2023-06-24T06:59:59;7.18;;;6.30;;
24411;SDS011;12544;46.760;15.942;2023-06-24T07:02:24;7.07;;;6.30;;
24411;SDS011;12544;46.760;15.942;2023-06-24T07:04:50;7.15;;;6.43;;
24411;SDS011;12544;46.760;15.942;2023-06-24T07:07:16;8.48;;;5.85;;
24411;SDS011;12544;46.760;15.942;2023-06-24T07:13:04;9.07;;;6.60;;
24411;SDS011;12544;46.760;15.942;2023-06-24T07:15:30;9.57;;;5.95;;
24411;SDS011;12544;46.760;15.942;2023-06-24T07:17:55;6.20;;;5.30;;
24411;SDS011;12544;46.760;15.942;2023-06-24T07:20:21;5.45;;;4.80;;
24411;SDS011;12544;46.760;15.942;2023-06-24T07:22:47;7.70;;;5.75;;
24411;SDS011;12544;46.760;15.942;2023-06-24T07:25:12;9.25;;;5.38;;
24411;SDS011;12544;46.760;15.942;2023-06-24T07:27:38;5.40;;;4.80;;
24411;SDS011;12544;46.760;15.942;2023-06-24T07:30:05;5.80;;;5.30;;
24411;SDS011;12544;46.760;15.942;2023-06-24T07:32:31;5.57;;;4.22;;
24411;SDS011;12544;46.760;15.942;2023-06-24T07:38:18;5.78;;;5.20;;
24411;SDS011;12544;46.760;15.942;2023-06-24T07:40:43;6.15;;;5.20;;
24411;SDS011;12544;46.760;15.942;2023-06-24T07:43:09;6.93;;;6.25;;
24411;SDS011;12544;46.760;15.942;2023-06-24T07:45:35;6.10;;;5.50;;
24411;SDS011;12544;46.760;15.942;2023-06-24T07:48:00;4.90;;;4.50;;
24411;SDS011;12544;46.760;15.942;2023-06-24T07:53:48;6.00;;;3.63;;
24411;SDS011;12544;46.760;15.942;2023-06-24T07:56:13;7.05;;;3.90;;
24411;SDS011;12544;46.760;15.942;2023-06-24T07:58:39;6.40;;;4.38;;
24411;SDS011;12544;46.760;15.942;2023-06-24T08:01:05;5.45;;;4.65;;
24411;SDS011;12544;46.760;15.942;2023-06-24T08:03:31;6.30;;;3.88;;
24411;SDS011;12544;46.760;15.942;2023-06-24T08:09:18;5.28;;;4.00;;
24411;SDS011;12544;46.760;15.942;2023-06-24T08:11:44;5.93;;;3.97;;
24411;SDS011;12544;46.760;15.942;2023-06-24T08:14:10;3.40;;;2.70;;
24411;SDS011;12544;46.760;15.942;2023-06-24T08:16:35;2.03;;;1.83;;
24411;SDS011;12544;46.760;15.942;2023-06-24T08:19:01;3.50;;;2.05;;
24411;SDS011;12544;46.760;15.942;2023-06-24T08:24:48;2.10;;;1.90;;
24411;SDS011;12544;46.760;15.942;2023-06-24T08:27:14;2.08;;;1.83;;
24411;SDS011;12544;46.760;15.942;2023-06-24T08:29:39;2.70;;;1.77;;
24411;SDS011;12544;46.760;15.942;2023-06-24T08:32:05;5.07;;;1.60;;
24411;SDS011;12544;46.760;15.942;2023-06-24T08:34:32;1.70;;;1.60;;
24411;SDS011;12544;46.760;15.942;2023-06-24T08:36:58;2.10;;;1.77;;
24411;SDS011;12544;46.760;15.942;2023-06-24T08:39:23;2.83;;;1.95;;
24411;SDS011;12544;46.760;15.942;2023-06-24T08:41:49;2.55;;;2.13;;
24411;SDS011;12544;46.760;15.942;2023-06-24T08:44:15;2.10;;;1.90;;
24411;SDS011;12544;46.760;15.942;2023-06-24T08:46:41;2.47;;;2.05;;
24411;SDS011;12544;46.760;15.942;2023-06-24T08:49:11;3.40;;;2.28;;
24411;SDS011;12544;46.760;15.942;2023-06-24T08:51:59;2.33;;;2.13;;
24411;SDS011;12544;46.760;15.942;2023-06-24T08:54:28;2.40;;;1.90;;
24411;SDS011;12544;46.760;15.942;2023-06-24T09:00:15;1.25;;;1.15;;
24411;SDS011;12544;46.760;15.942;2023-06-24T09:02:41;1.63;;;1.10;;
24411;SDS011;12544;46.760;15.942;2023-06-24T09:05:08;1.17;;;1.10;;
24411;SDS011;12544;46.760;15.942;2023-06-24T09:07:33;1.25;;;1.15;;
24411;SDS011;12544;46.760;15.942;2023-06-24T09:09:59;1.25;;;1.15;;
24411;SDS011;12544;46.760;15.942;2023-06-24T09:12:25;1.83;;;1.10;;
24411;SDS011;12544;46.760;15.942;2023-06-24T09:14:51;1.38;;;1.10;;
24411;SDS011;12544;46.760;15.942;2023-06-24T09:17:17;2.17;;;1.35;;
24411;SDS011;12544;46.760;15.942;2023-06-24T09:19:47;1.42;;;1.33;;
24411;SDS011;12544;46.760;15.942;2023-06-24T09:22:13;1.48;;;1.17;;
24411;SDS011;12544;46.760;15.942;2023-06-24T09:24:43;1.38;;;1.27;;
24411;SDS011;12544;46.760;15.942;2023-06-24T09:27:15;1.33;;;1.05;;
24411;SDS011;12544;46.760;15.942;2023-06-24T09:29:44;1.55;;;1.08;;
24411;SDS011;12544;46.760;15.942;2023-06-24T09:32:12;1.10;;;1.00;;
24411;SDS011;12544;46.760;15.942;2023-06-24T09:34:38;1.70;;;1.15;;
24411;SDS011;12544;46.760;15.942;2023-06-24T09:37:04;1.10;;;1.00;;
24411;SDS011;12544;46.760;15.942;2023-06-24T09:39:34;1.10;;;1.00;;
24411;SDS011;12544;46.760;15.942;2023-06-24T09:42:01;3.75;;;1.17;;
24411;SDS011;12544;46.760;15.942;2023-06-24T09:44:29;1.05;;;0.95;;
24411;SDS011;12544;46.760;15.942;2023-06-24T09:46:55;0.80;;;0.80;;
24411;SDS011;12544;46.760;15.942;2023-06-24T09:49:21;0.90;;;0.90;;
24411;SDS011;12544;46.760;15.942;2023-06-24T09:51:48;0.82;;;0.82;;
24411;SDS011;12544;46.760;15.942;2023-06-24T09:54:15;0.90;;;0.80;;
24411;SDS011;12544;46.760;15.942;2023-06-24T09:56:48;0.52;;;0.52;;
24411;SDS011;12544;46.760;15.942;2023-06-24T09:59:15;0.50;;;0.50;;
24411;SDS011;12544;46.760;15.942;2023-06-24T10:01:44;1.10;;;0.50;;
24411;SDS011;12544;46.760;15.942;2023-06-24T10:04:15;0.38;;;0.38;;
24411;SDS011;12544;46.760;15.942;2023-06-24T10:06:43;0.52;;;0.35;;
24411;SDS011;12544;46.760;15.942;2023-06-24T10:09:08;0.40;;;0.40;;
24411;SDS011;12544;46.760;15.942;2023-06-24T10:11:35;0.80;;;0.35;;
24411;SDS011;12544;46.760;15.942;2023-06-24T10:14:01;0.28;;;0.28;;
24411;SDS011;12544;46.760;15.942;2023-06-24T10:16:27;0.55;;;0.45;;
24411;SDS011;12544;46.760;15.942;2023-06-24T10:18:52;0.22;;;0.22;;
24411;SDS011;12544;46.760;15.942;2023-06-24T10:21:44;0.30;;;0.30;;
24411;SDS011;12544;46.760;15.942;2023-06-24T10:24:12;0.20;;;0.20;;
24411;SDS011;12544;46.760;15.942;2023-06-24T10:26:39;2.83;;;0.20;;
24411;SDS011;12544;46.760;15.942;2023-06-24T10:36:56;0.20;;;0.20;;
24411;SDS011;12544;46.760;15.942;2023-06-24T10:39:34;0.20;;;0.20;;
24411;SDS011;12544;46.760;15.942;2023-06-24T10:44:51;0.20;;;0.20;;
24411;SDS011;12544;46.760;15.942;2023-06-24T10:47:18;0.20;;;0.20;;
24411;SDS011;12544;46.760;15.942;2023-06-24T10:49:43;0.20;;;0.20;;
24411;SDS011;12544;46.760;15.942;2023-06-24T10:52:10;0.80;;;0.20;;
24411;SDS011;12544;46.760;15.942;2023-06-24T10:54:40;0.30;;;0.30;;
24411;SDS011;12544;46.760;15.942;2023-06-24T10:57:06;0.30;;;0.30;;
24411;SDS011;12544;46.760;15.942;2023-06-24T10:59:39;0.75;;;0.20;;
24411;SDS011;12544;46.760;15.942;2023-06-24T11:02:04;0.20;;;0.20;;
24411;SDS011;12544;46.760;15.942;2023-06-24T11:04:30;0.22;;;0.22;;
24411;SDS011;12544;46.760;15.942;2023-06-24T11:06:57;0.30;;;0.30;;
24411;SDS011;12544;46.760;15.942;2023-06-24T11:09:24;0.20;;;0.20;;
24411;SDS011;12544;46.760;15.942;2023-06-24T11:11:49;1.48;;;0.30;;
24411;SDS011;12544;46.760;15.942;2023-06-24T11:14:15;0.20;;;0.20;;
24411;SDS011;12544;46.760;15.942;2023-06-24T11:16:41;0.20;;;0.20;;
24411;SDS011;12544;46.760;15.942;2023-06-24T11:19:07;0.20;;;0.20;;
24411;SDS011;12544;46.760;15.942;2023-06-24T11:21:33;0.20;;;0.20;;
24411;SDS011;12544;46.760;15.942;2023-06-24T11:24:02;0.30;;;0.30;;
24411;SDS011;12544;46.760;15.942;2023-06-24T11:26:28;0.20;;;0.20;;
24411;SDS011;12544;46.760;15.942;2023-06-24T11:28:54;0.20;;;0.20;;
24411;SDS011;12544;46.760;15.942;2023-06-24T11:31:26;0.30;;;0.30;;
24411;SDS011;12544;46.760;15.942;2023-06-24T11:33:52;0.93;;;0.28;;
24411;SDS011;12544;46.760;15.942;2023-06-24T11:36:18;0.20;;;0.20;;
24411;SDS011;12544;46.760;15.942;2023-06-24T11:38:47;0.30;;;0.30;;
24411;SDS011;12544;46.760;15.942;2023-06-24T11:41:14;0.20;;;0.20;;
24411;SDS011;12544;46.760;15.942;2023-06-24T11:43:44;0.20;;;0.20;;
24411;SDS011;12544;46.760;15.942;2023-06-24T11:46:10;0.28;;;0.28;;
24411;SDS011;12544;46.760;15.942;2023-06-24T11:48:45;0.43;;;0.20;;
24411;SDS011;12544;46.760;15.942;2023-06-24T11:51:13;0.20;;;0.20;;
24411;SDS011;12544;46.760;15.942;2023-06-24T11:53:42;0.30;;;0.30;;
24411;SDS011;12544;46.760;15.942;2023-06-24T11:56:09;0.22;;;0.20;;
24411;SDS011;12544;46.760;15.942;2023-06-24T11:58:35;0.20;;;0.20;;
24411;SDS011;12544;46.760;15.942;2023-06-24T12:01:01;0.95;;;0.20;;
24411;SDS011;12544;46.760;15.942;2023-06-24T12:03:30;0.20;;;0.20;;
24411;SDS011;12544;46.760;15.942;2023-06-24T12:05:57;0.63;;;0.20;;
24411;SDS011;12544;46.760;15.942;2023-06-24T12:08:23;0.20;;;0.20;;
24411;SDS011;12544;46.760;15.942;2023-06-24T12:10:48;0.40;;;0.30;;
24411;SDS011;12544;46.760;15.942;2023-06-24T12:13:14;0.20;;;0.20;;
24411;SDS011;12544;46.760;15.942;2023-06-24T12:15:40;0.20;;;0.20;;
24411;SDS011;12544;46.760;15.942;2023-06-24T12:18:06;0.20;;;0.20;;
24411;SDS011;12544;46.760;15.942;2023-06-24T12:20:32;4.00;;;0.43;;
24411;SDS011;12544;46.760;15.942;2023-06-24T12:22:59;0.20;;;0.20;;
24411;SDS011;12544;46.760;15.942;2023-06-24T12:25:25;0.77;;;0.30;;
24411;SDS011;12544;46.760;15.942;2023-06-24T12:27:50;1.15;;;0.30;;
24411;SDS011;12544;46.760;15.942;2023-06-24T12:30:16;0.20;;;0.20;;
24411;SDS011;12544;46.760;15.942;2023-06-24T12:32:42;0.30;;;0.30;;
24411;SDS011;12544;46.760;15.942;2023-06-24T12:35:08;0.30;;;0.30;;
24411;SDS011;12544;46.760;15.942;2023-06-24T12:37:35;0.30;;;0.30;;
24411;SDS011;12544;46.760;15.942;2023-06-24T12:40:04;0.30;;;0.30;;
24411;SDS011;12544;46.760;15.942;2023-06-24T12:42:30;0.30;;;0.28;;
24411;SDS011;12544;46.760;15.942;2023-06-24T12:44:56;0.30;;;0.30;;
24411;SDS011;12544;46.760;15.942;2023-06-24T12:47:21;0.25;;;0.25;;
24411;SDS011;12544;46.760;15.942;2023-06-24T12:49:48;0.30;;;0.30;;
24411;SDS011;12544;46.760;15.942;2023-06-24T12:52:14;0.40;;;0.40;;
24411;SDS011;12544;46.760;15.942;2023-06-24T12:54:40;0.40;;;0.40;;
24411;SDS011;12544;46.760;15.942;2023-06-24T12:57:07;0.60;;;0.50;;
24411;SDS011;12544;46.760;15.942;2023-06-24T12:59:33;0.40;;;0.40;;
24411;SDS011;12544;46.760;15.942;2023-06-24T13:01:58;0.40;;;0.40;;
24411;SDS011;12544;46.760;15.942;2023-06-24T13:04:24;0.40;;;0.40;;
24411;SDS011;12544;46.760;15.942;2023-06-24T13:06:53;0.40;;;0.40;;
24411;SDS011;12544;46.760;15.942;2023-06-24T13:09:19;1.35;;;0.30;;
24411;SDS011;12544;46.760;15.942;2023-06-24T13:11:44;0.30;;;0.30;;
24411;SDS011;12544;46.760;15.942;2023-06-24T13:14:11;0.30;;;0.30;;
24411;SDS011;12544;46.760;15.942;2023-06-24T13:16:37;0.68;;;0.40;;
24411;SDS011;12544;46.760;15.942;2023-06-24T13:19:03;0.30;;;0.30;;
24411;SDS011;12544;46.760;15.942;2023-06-24T13:21:28;0.30;;;0.30;;
24411;SDS011;12544;46.760;15.942;2023-06-24T13:23:54;0.40;;;0.40;;
24411;SDS011;12544;46.760;15.942;2023-06-24T13:26:20;0.52;;;0.50;;
24411;SDS011;12544;46.760;15.942;2023-06-24T13:28:45;0.40;;;0.40;;
24411;SDS011;12544;46.760;15.942;2023-06-24T13:31:11;0.40;;;0.40;;
24411;SDS011;12544;46.760;15.942;2023-06-24T13:33:37;0.40;;;0.40;;
24411;SDS011;12544;46.760;15.942;2023-06-24T13:36:03;1.10;;;0.40;;
24411;SDS011;12544;46.760;15.942;2023-06-24T13:38:31;0.30;;;0.30;;
24411;SDS011;12544;46.760;15.942;2023-06-24T13:40:57;0.52;;;0.40;;
24411;SDS011;12544;46.760;15.942;2023-06-24T13:43:23;1.08;;;0.45;;
24411;SDS011;12544;46.760;15.942;2023-06-24T13:45:48;1.15;;;0.40;;
24411;SDS011;12544;46.760;15.942;2023-06-24T13:48:14;0.40;;;0.40;;
24411;SDS011;12544;46.760;15.942;2023-06-24T13:50:39;0.70;;;0.70;;
24411;SDS011;12544;46.760;15.942;2023-06-24T13:53:05;0.50;;;0.50;;
24411;SDS011;12544;46.760;15.942;2023-06-24T13:55:31;0.50;;;0.40;;
24411;SDS011;12544;46.760;15.942;2023-06-24T13:57:57;0.45;;;0.40;;
24411;SDS011;12544;46.760;15.942;2023-06-24T14:00:23;0.40;;;0.40;;
24411;SDS011;12544;46.760;15.942;2023-06-24T14:02:50;0.43;;;0.43;;
24411;SDS011;12544;46.760;15.942;2023-06-24T14:05:16;0.95;;;0.40;;
24411;SDS011;12544;46.760;15.942;2023-06-24T14:07:42;0.50;;;0.50;;
24411;SDS011;12544;46.760;15.942;2023-06-24T14:10:07;0.52;;;0.52;;
24411;SDS011;12544;46.760;15.942;2023-06-24T14:12:33;0.73;;;0.50;;
24411;SDS011;12544;46.760;15.942;2023-06-24T14:14:59;0.50;;;0.50;;
24411;SDS011;12544;46.760;15.942;2023-06-24T14:17:24;2.83;;;0.50;;
24411;SDS011;12544;46.760;15.942;2023-06-24T14:19:51;0.70;;;0.50;;
24411;SDS011;12544;46.760;15.942;2023-06-24T14:22:17;0.95;;;0.40;;
24411;SDS011;12544;46.760;15.942;2023-06-24T14:24:43;0.77;;;0.50;;
24411;SDS011;12544;46.760;15.942;2023-06-24T14:27:08;0.50;;;0.50;;
24411;SDS011;12544;46.760;15.942;2023-06-24T14:29:34;0.77;;;0.60;;
24411;SDS011;12544;46.760;15.942;2023-06-24T14:32:00;0.45;;;0.45;;
24411;SDS011;12544;46.760;15.942;2023-06-24T14:34:26;1.35;;;0.50;;
24411;SDS011;12544;46.760;15.942;2023-06-24T14:36:54;0.40;;;0.40;;
24411;SDS011;12544;46.760;15.942;2023-06-24T14:39:20;0.50;;;0.50;;
24411;SDS011;12544;46.760;15.942;2023-06-24T14:41:46;0.50;;;0.47;;
24411;SDS011;12544;46.760;15.942;2023-06-24T14:44:11;0.43;;;0.40;;
24411;SDS011;12544;46.760;15.942;2023-06-24T14:46:37;0.47;;;0.47;;
24411;SDS011;12544;46.760;15.942;2023-06-24T14:49:03;1.20;;;0.50;;
24411;SDS011;12544;46.760;15.942;2023-06-24T14:51:28;0.70;;;0.70;;
24411;SDS011;12544;46.760;15.942;2023-06-24T14:53:54;0.50;;;0.50;;
24411;SDS011;12544;46.760;15.942;2023-06-24T14:56:19;0.52;;;0.52;;
24411;SDS011;12544;46.760;15.942;2023-06-24T14:58:45;1.40;;;0.57;;
24411;SDS011;12544;46.760;15.942;2023-06-24T15:01:11;0.95;;;0.85;;
24411;SDS011;12544;46.760;15.942;2023-06-24T15:03:36;0.60;;;0.60;;
24411;SDS011;12544;46.760;15.942;2023-06-24T15:06:02;0.70;;;0.70;;
24411;SDS011;12544;46.760;15.942;2023-06-24T15:08:28;0.75;;;0.70;;
24411;SDS011;12544;46.760;15.942;2023-06-24T15:10:54;0.70;;;0.70;;
24411;SDS011;12544;46.760;15.942;2023-06-24T15:13:19;0.70;;;0.70;;
24411;SDS011;12544;46.760;15.942;2023-06-24T15:15:45;0.90;;;0.80;;
24411;SDS011;12544;46.760;15.942;2023-06-24T15:18:11;1.60;;;0.70;;
24411;SDS011;12544;46.760;15.942;2023-06-24T15:20:36;1.02;;;0.70;;
24411;SDS011;12544;46.760;15.942;2023-06-24T15:23:02;0.93;;;0.77;;
24411;SDS011;12544;46.760;15.942;2023-06-24T15:25:28;0.90;;;0.80;;
24411;SDS011;12544;46.760;15.942;2023-06-24T15:27:54;2.13;;;1.05;;
24411;SDS011;12544;46.760;15.942;2023-06-24T15:30:20;1.10;;;1.10;;
24411;SDS011;12544;46.760;15.942;2023-06-24T15:32:46;1.63;;;1.40;;